Time;durP1;ratioP1;P1;durP2;ratioP2;P2;SDS_P1;SDS_P2;PMS_P1;PMS_P2;Temp;Humidity;BMP_temperature;BMP_pressure;BME280_temperature;BME280_humidity;BME280_pressure;Samples;Min_cycle;Max_cycle;Signal;HPM_P1;HPM_P2
2023/05/29 00:01:37;;;;;;;5.88;4.53;;;;;;;16.08;68.55;96419.91;5041293;28;20221;-58
2023/05/29 00:04:04;;;;;;;6.97;5.05;;;;;;;16.08;68.84;96424.41;5042080;28;20208;-59
2023/05/29 00:06:30;;;;;;;6.88;5.43;;;;;;;16.03;69.37;96426.75;5041286;28;20628;-59
2023/05/29 00:08:58;;;;;;;6.75;4.72;;;;;;;15.87;70.57;96425.09;5042252;28;20545;-60
2023/05/29 00:11:26;;;;;;;6.07;5.13;;;;;;;15.71;71.70;96434.06;5041209;28;20632;-57
2023/05/29 00:13:52;;;;;;;5.75;5.18;;;;;;;15.70;71.26;96428.91;5041624;28;20223;-58
2023/05/29 00:16:21;;;;;;;5.30;4.60;;;;;;;15.56;71.36;96433.19;5041332;28;20207;-59
2023/05/29 00:18:47;;;;;;;5.90;5.03;;;;;;;15.48;73.28;96430.53;5040990;28;20321;-58
2023/05/29 00:21:14;;;;;;;8.88;5.40;;;;;;;15.34;73.00;96436.63;5040593;28;20235;-59
2023/05/29 00:23:43;;;;;;;7.18;5.15;;;;;;;15.45;73.38;96433.56;5041839;28;20214;-58
2023/05/29 00:26:11;;;;;;;6.43;5.10;;;;;;;15.30;74.82;96440.69;5041321;28;20518;-60
2023/05/29 00:28:38;;;;;;;5.80;4.80;;;;;;;15.33;73.20;96440.34;5041196;28;20778;-58
2023/05/29 00:31:04;;;;;;;6.10;5.00;;;;;;;15.21;74.11;96442.56;5040313;28;20203;-59
2023/05/29 00:33:31;;;;;;;8.93;5.28;;;;;;;15.19;74.74;96430.44;5041558;28;20241;-59
2023/05/29 00:35:57;;;;;;;6.47;4.75;;;;;;;15.19;74.70;96430.44;5042867;28;20214;-59
2023/05/29 00:38:24;;;;;;;8.10;5.20;;;;;;;15.23;74.84;96429.09;5044627;28;20216;-59
2023/05/29 00:40:50;;;;;;;6.05;4.90;;;;;;;15.12;75.61;96433.00;5044313;28;20523;-58
2023/05/29 00:43:18;;;;;;;7.10;4.90;;;;;;;15.07;77.27;96432.66;5044222;28;20408;-60
2023/05/29 00:45:45;;;;;;;6.28;5.22;;;;;;;15.02;76.39;96434.22;5044713;28;20200;-59
2023/05/29 00:48:11;;;;;;;6.07;5.03;;;;;;;15.02;76.25;96439.53;5045670;28;20659;-59
2023/05/29 00:50:38;;;;;;;8.10;5.07;;;;;;;14.97;76.40;96428.56;5045618;28;20196;-58
2023/05/29 00:53:07;;;;;;;6.18;4.82;;;;;;;14.92;75.03;96432.59;5044931;28;20671;-59
2023/05/29 00:55:34;;;;;;;6.65;5.10;;;;;;;14.86;74.60;96443.09;5045043;28;20210;-58
2023/05/29 00:58:01;;;;;;;5.80;4.93;;;;;;;14.78;77.16;96435.16;5044698;28;21503;-58
2023/05/29 01:00:30;;;;;;;7.53;4.95;;;;;;;14.75;76.82;96431.00;5044672;28;20211;-59
2023/05/29 01:02:58;;;;;;;6.95;4.57;;;;;;;14.71;75.40;96429.69;5045035;28;20217;-60
2023/05/29 01:05:24;;;;;;;6.07;4.82;;;;;;;14.76;74.91;96432.69;5048742;28;20210;-59
2023/05/29 01:07:50;;;;;;;6.22;4.90;;;;;;;14.73;75.39;96432.19;5049644;28;20199;-59
2023/05/29 01:10:17;;;;;;;6.83;4.73;;;;;;;14.61;74.51;96431.75;5048574;28;20223;-59
2023/05/29 01:12:48;;;;;;;5.20;4.70;;;;;;;14.57;75.23;96433.09;5044060;28;20257;-61
2023/05/29 01:15:21;;;;;;;6.20;4.70;;;;;;;14.49;72.70;96427.78;5043293;28;20849;-59
2023/05/29 01:17:58;;;;;;;7.13;4.97;;;;;;;14.48;71.88;96427.97;5044747;28;20204;-58
2023/05/29 01:20:30;;;;;;;7.30;5.10;;;;;;;14.47;71.67;96435.13;5045479;28;20231;-59
2023/05/29 01:23:09;;;;;;;8.13;5.50;;;;;;;14.49;72.20;96432.31;5044778;28;20207;-59
2023/05/29 01:25:47;;;;;;;5.70;4.93;;;;;;;14.50;73.48;96434.78;5044418;28;20223;-58
2023/05/29 01:28:17;;;;;;;6.45;5.30;;;;;;;14.54;71.49;96430.78;5043947;28;20249;-59
2023/05/29 01:30:43;;;;;;;6.87;5.20;;;;;;;14.47;72.28;96437.78;5046379;28;20308;-59
2023/05/29 01:33:10;;;;;;;5.97;5.00;;;;;;;14.46;73.21;96436.13;5046315;28;20214;-57
2023/05/29 01:35:37;;;;;;;5.75;4.93;;;;;;;14.47;73.05;96437.78;5047136;28;20214;-59
2023/05/29 01:38:03;;;;;;;6.30;4.82;;;;;;;14.47;74.82;96434.28;5048104;28;20226;-60
2023/05/29 01:40:30;;;;;;;5.87;4.80;;;;;;;14.31;76.56;96432.50;5044388;28;20207;-59
2023/05/29 01:42:56;;;;;;;7.57;5.27;;;;;;;14.06;73.32;96428.25;5043920;28;20207;-59
2023/05/29 01:45:25;;;;;;;8.10;4.60;;;;;;;14.18;73.16;96437.50;5042750;28;20264;-58
2023/05/29 01:47:51;;;;;;;5.40;4.90;;;;;;;14.10;75.97;96441.00;5042935;28;20207;-59
2023/05/29 01:50:19;;;;;;;7.03;4.90;;;;;;;14.07;74.46;96436.03;5044046;28;20204;-58
2023/05/29 01:52:46;;;;;;;5.27;4.77;;;;;;;14.05;72.40;96437.22;5044594;28;20628;-59
2023/05/29 01:55:12;;;;;;;6.63;4.70;;;;;;;14.08;76.02;96428.91;5044651;28;20211;-58
2023/05/29 01:57:39;;;;;;;5.37;4.63;;;;;;;14.09;75.75;96430.56;5043405;28;20203;-57
2023/05/29 02:00:10;;;;;;;6.63;5.10;;;;;;;14.09;75.07;96433.22;5043165;28;20680;-59
2023/05/29 02:02:38;;;;;;;6.27;4.83;;;;;;;14.05;76.14;96426.59;5043283;28;20265;-59
2023/05/29 02:05:06;;;;;;;7.20;5.33;;;;;;;13.88;73.50;96429.28;5044067;28;20226;-58
2023/05/29 02:07:32;;;;;;;7.93;5.27;;;;;;;13.89;76.33;96427.44;5043770;28;20225;-57
2023/05/29 02:09:59;;;;;;;5.13;4.67;;;;;;;13.89;75.78;96438.91;5043647;28;20206;-59
2023/05/29 02:12:25;;;;;;;6.27;4.90;;;;;;;13.96;76.52;96433.72;5043151;28;20209;-58
2023/05/29 02:14:52;;;;;;;6.67;4.83;;;;;;;13.90;75.47;96429.94;5042790;28;20547;-60
2023/05/29 02:17:19;;;;;;;5.93;4.87;;;;;;;13.83;75.32;96434.25;5042888;28;20261;-59
2023/05/29 02:19:46;;;;;;;7.53;5.30;;;;;;;13.86;76.36;96430.44;5042243;28;20877;-59
2023/05/29 02:22:13;;;;;;;7.90;5.20;;;;;;;13.82;76.36;96437.06;5042825;28;20215;-58
2023/05/29 02:24:39;;;;;;;7.27;4.77;;;;;;;13.87;76.74;96432.94;5044039;28;20254;-58
2023/05/29 02:27:06;;;;;;;6.87;5.03;;;;;;;13.83;75.13;96428.94;5043763;28;20214;-58
2023/05/29 02:29:33;;;;;;;10.53;5.07;;;;;;;13.73;78.36;96420.31;5047899;28;20188;-61
2023/05/29 02:31:59;;;;;;;6.77;4.93;;;;;;;13.73;76.97;96430.13;5048387;28;20203;-60
2023/05/29 02:34:26;;;;;;;6.07;4.90;;;;;;;13.81;77.02;96427.47;5047145;28;20207;-58
2023/05/29 02:36:54;;;;;;;7.40;5.27;;;;;;;13.75;76.21;96431.59;5045620;28;20211;-58
2023/05/29 02:39:21;;;;;;;7.40;5.00;;;;;;;13.53;75.16;96431.47;5045430;28;20229;-59
2023/05/29 02:41:48;;;;;;;5.70;5.10;;;;;;;13.54;76.00;96435.75;5043984;28;20211;-59
2023/05/29 02:44:15;;;;;;;6.23;5.50;;;;;;;13.41;78.52;96434.44;5045085;28;20212;-59
2023/05/29 02:46:41;;;;;;;5.30;4.80;;;;;;;13.45;79.82;96426.97;5044937;28;20206;-58
2023/05/29 02:49:08;;;;;;;5.77;4.93;;;;;;;13.50;78.61;96429.94;5045809;28;20639;-59
2023/05/29 02:51:35;;;;;;;6.87;5.37;;;;;;;13.38;77.97;96428.63;5050557;28;20253;-59
2023/05/29 02:54:05;;;;;;;7.47;4.97;;;;;;;13.41;79.60;96431.78;5050685;28;20218;-58
2023/05/29 02:56:32;;;;;;;6.13;5.33;;;;;;;13.35;76.57;96429.81;5048694;28;20214;-58
2023/05/29 02:59:00;;;;;;;6.30;5.00;;;;;;;13.26;79.03;96429.94;5045039;28;20241;-58
2023/05/29 03:01:26;;;;;;;6.27;5.60;;;;;;;13.21;81.41;96437.59;5045647;28;20290;-59
2023/05/29 03:03:53;;;;;;;5.43;4.80;;;;;;;13.23;80.68;96440.91;5046924;28;20214;-59
2023/05/29 03:06:19;;;;;;;7.43;5.20;;;;;;;13.32;82.23;96429.31;5043821;28;20209;-59
2023/05/29 03:08:46;;;;;;;7.33;5.13;;;;;;;13.30;80.73;96433.94;5041907;28;20245;-59
2023/05/29 03:11:15;;;;;;;8.30;6.53;;;;;;;13.30;81.35;96445.41;5041792;28;20203;-59
2023/05/29 03:13:41;;;;;;;6.00;5.17;;;;;;;13.24;80.79;96431.94;5043247;28;20203;-59
2023/05/29 03:16:08;;;;;;;6.87;5.83;;;;;;;13.15;78.75;96438.22;5041579;28;20211;-59
2023/05/29 03:18:34;;;;;;;7.40;4.93;;;;;;;13.18;81.26;96435.28;5042522;28;20312;-59
2023/05/29 03:21:02;;;;;;;7.27;5.40;;;;;;;13.20;81.93;96433.28;5042460;28;20258;-58
2023/05/29 03:23:28;;;;;;;7.80;5.60;;;;;;;13.12;80.56;96438.56;5042694;28;20643;-58
2023/05/29 03:25:55;;;;;;;9.33;5.47;;;;;;;13.10;80.52;96435.25;5042634;28;20253;-59
2023/05/29 03:28:23;;;;;;;6.27;5.20;;;;;;;12.94;79.34;96436.84;5043559;28;20218;-59
2023/05/29 03:30:51;;;;;;;7.47;5.63;;;;;;;12.93;79.56;96440.47;5043723;28;20211;-59
2023/05/29 03:33:17;;;;;;;7.43;5.30;;;;;;;12.97;81.47;96440.97;5042789;28;20299;-58
2023/05/29 03:35:44;;;;;;;6.70;5.10;;;;;;;12.91;82.65;96444.28;5043680;28;20232;-60
2023/05/29 03:38:11;;;;;;;6.30;5.40;;;;;;;12.92;81.07;96444.16;5042672;28;20223;-60
2023/05/29 03:40:37;;;;;;;6.13;5.30;;;;;;;12.97;82.72;96447.13;5042463;28;20227;-60
2023/05/29 03:43:03;;;;;;;8.53;5.57;;;;;;;13.03;82.41;96444.81;5043159;28;20196;-59
2023/05/29 03:45:31;;;;;;;7.43;5.20;;;;;;;13.03;81.29;96450.13;5042348;28;20215;-59
2023/05/29 03:47:58;;;;;;;8.53;5.20;;;;;;;12.99;83.02;96449.63;5045337;28;20256;-59
2023/05/29 03:50:24;;;;;;;6.27;4.93;;;;;;;13.04;82.37;96451.81;5044343;28;20223;-59
2023/05/29 03:52:50;;;;;;;8.80;5.27;;;;;;;12.99;81.80;96452.28;5047399;28;20215;-59
2023/05/29 03:55:17;;;;;;;8.07;5.67;;;;;;;13.03;83.16;96453.63;5045729;28;20211;-59
2023/05/29 03:57:43;;;;;;;7.23;5.63;;;;;;;12.99;82.25;96454.94;5043151;28;20260;-58
2023/05/29 04:00:13;;;;;;;6.17;4.63;;;;;;;13.04;84.04;96457.13;5043337;28;20226;-58
2023/05/29 04:02:41;;;;;;;6.83;5.73;;;;;;;13.00;85.16;96456.63;5049807;28;20679;-59
2023/05/29 04:05:09;;;;;;;7.67;5.30;;;;;;;13.05;83.77;96454.28;5054352;28;20199;-60
2023/05/29 04:07:36;;;;;;;7.23;5.50;;;;;;;12.96;81.55;96460.56;5057950;28;20199;-58
2023/05/29 04:10:03;;;;;;;6.57;5.40;;;;;;;13.03;85.87;96456.28;5064496;28;20172;-58
2023/05/29 04:12:30;;;;;;;7.70;5.43;;;;;;;13.11;84.67;96463.47;5055368;28;20204;-58
2023/05/29 04:14:56;;;;;;;9.87;5.83;;;;;;;13.18;85.46;96462.63;5045415;28;20207;-59
2023/05/29 04:17:23;;;;;;;8.63;5.50;;;;;;;13.19;84.78;96477.56;5045714;28;20222;-58
2023/05/29 04:19:51;;;;;;;5.07;4.37;;;;;;;13.22;85.72;96471.09;5044879;28;20687;-58
2023/05/29 04:22:17;;;;;;;7.60;5.57;;;;;;;13.26;86.91;96477.75;5045480;28;20206;-58
2023/05/29 04:24:44;;;;;;;8.60;5.60;;;;;;;13.23;88.27;96480.72;5045043;28;20639;-59
2023/05/29 04:27:12;;;;;;;7.20;5.83;;;;;;;13.31;87.98;96476.28;5045169;28;20512;-59
2023/05/29 04:29:40;;;;;;;7.03;5.50;;;;;;;13.39;88.62;96478.13;5045492;28;20205;-60
2023/05/29 04:32:08;;;;;;;8.57;5.43;;;;;;;13.43;89.23;96474.13;5045634;28;20199;-60
2023/05/29 04:34:34;;;;;;;7.30;5.63;;;;;;;13.54;91.03;96473.78;5045646;28;20227;-58
2023/05/29 04:37:05;;;;;;;7.50;5.40;;;;;;;13.64;91.21;96474.47;5044715;28;20307;-58
2023/05/29 04:39:33;;;;;;;7.33;5.50;;;;;;;13.68;89.10;96475.78;5044807;28;20246;-60
2023/05/29 04:42:00;;;;;;;6.83;5.20;;;;;;;13.82;91.51;96477.78;5045101;28;20199;-59
2023/05/29 04:44:27;;;;;;;7.27;5.53;;;;;;;13.90;91.52;96477.78;5043632;28;20211;-58
2023/05/29 04:46:53;;;;;;;6.27;5.00;;;;;;;14.06;90.04;96484.09;5044179;28;20555;-58
2023/05/29 04:49:20;;;;;;;5.93;5.17;;;;;;;14.24;89.05;96485.53;5045211;28;20195;-59
2023/05/29 04:51:46;;;;;;;6.93;5.43;;;;;;;14.25;89.80;96492.50;5045970;28;20230;-60
2023/05/29 04:54:14;;;;;;;6.63;5.70;;;;;;;14.37;89.52;96496.53;5046099;28;20223;-61
2023/05/29 04:56:41;;;;;;;7.30;5.57;;;;;;;14.47;89.17;96496.31;5044605;28;20214;-59
2023/05/29 04:59:07;;;;;;;5.53;5.00;;;;;;;14.54;89.29;96501.78;5045901;28;20234;-59
2023/05/29 05:01:34;;;;;;;6.40;5.63;;;;;;;14.57;90.74;96486.31;5046211;28;20284;-59
2023/05/29 05:04:00;;;;;;;9.50;5.60;;;;;;;14.71;89.02;96498.06;5045103;28;20218;-59
2023/05/29 05:06:28;;;;;;;6.33;5.47;;;;;;;14.86;86.39;96507.84;5044375;28;20306;-58
2023/05/29 05:08:55;;;;;;;6.13;5.23;;;;;;;15.03;86.07;96505.09;5044920;28;20207;-59
2023/05/29 05:11:26;;;;;;;7.90;5.80;;;;;;;15.19;86.68;96505.88;5044565;28;20294;-59
2023/05/29 05:13:53;;;;;;;6.70;5.33;;;;;;;15.36;86.08;96509.25;5044862;28;20191;-58
2023/05/29 05:16:19;;;;;;;10.70;5.90;;;;;;;15.55;84.07;96508.84;5044550;28;20215;-58
2023/05/29 05:18:46;;;;;;;6.45;5.80;;;;;;;15.72;80.17;96505.03;5045006;28;20211;-60
2023/05/29 05:21:12;;;;;;;7.30;5.22;;;;;;;16.02;78.13;96507.78;5044710;28;20234;-58
2023/05/29 05:23:38;;;;;;;7.82;5.30;;;;;;;16.22;75.86;96500.97;5043208;28;20207;-59
2023/05/29 05:26:05;;;;;;;8.40;5.88;;;;;;;16.42;74.71;96502.91;5044853;28;20212;-58
2023/05/29 05:28:33;;;;;;;8.05;6.80;;;;;;;16.60;70.12;96505.25;5044258;28;20208;-60
2023/05/29 05:31:01;;;;;;;6.25;5.32;;;;;;;16.69;63.91;96506.81;5044986;28;20302;-59
2023/05/29 05:33:28;;;;;;;6.97;6.10;;;;;;;16.87;64.35;96506.44;5044238;28;20195;-58
2023/05/29 05:35:54;;;;;;;6.85;5.63;;;;;;;17.14;64.95;96510.28;5043987;28;20222;-58
2023/05/29 05:38:21;;;;;;;8.15;5.57;;;;;;;17.32;67.73;96516.06;5043996;28;20195;-59
2023/05/29 05:40:47;;;;;;;7.43;5.88;;;;;;;17.53;64.75;96518.78;5044001;28;20876;-59
2023/05/29 05:43:14;;;;;;;6.28;5.40;;;;;;;17.81;63.99;96510.88;5044523;28;20223;-58
2023/05/29 05:45:42;;;;;;;7.13;6.13;;;;;;;18.11;62.01;96511.53;5043789;28;20223;-60
2023/05/29 05:48:09;;;;;;;8.10;5.65;;;;;;;18.34;62.88;96507.63;5044558;28;20540;-59
2023/05/29 05:50:35;;;;;;;7.40;5.25;;;;;;;18.56;62.27;96510.28;5043780;28;20254;-58
2023/05/29 05:53:02;;;;;;;7.25;5.43;;;;;;;18.79;59.53;96511.66;5043718;28;20223;-59
2023/05/29 05:55:28;;;;;;;7.95;5.65;;;;;;;19.07;59.69;96516.13;5043845;28;20218;-59
2023/05/29 05:57:57;;;;;;;8.25;5.80;;;;;;;19.19;56.01;96517.22;5045073;28;20199;-58
2023/05/29 06:00:25;;;;;;;7.70;5.50;;;;;;;19.33;55.22;96526.97;5043712;28;20321;-59
2023/05/29 06:02:53;;;;;;;10.23;6.43;;;;;;;19.51;55.01;96527.28;5044316;28;20207;-58
2023/05/29 06:05:20;;;;;;;7.28;5.63;;;;;;;19.73;54.35;96526.09;5044838;28;20206;-59
2023/05/29 06:07:46;;;;;;;6.30;5.32;;;;;;;19.89;54.29;96519.53;5046249;28;20203;-61
2023/05/29 06:10:13;;;;;;;7.55;5.78;;;;;;;19.98;56.28;96529.03;5047142;28;20203;-59
2023/05/29 06:12:39;;;;;;;8.35;6.00;;;;;;;20.29;52.94;96532.00;5044301;28;20200;-59
2023/05/29 06:15:08;;;;;;;7.40;5.72;;;;;;;20.44;52.79;96539.84;5043732;28;20215;-59
2023/05/29 06:17:35;;;;;;;6.15;5.38;;;;;;;20.56;51.65;96532.00;5043540;28;20230;-59
2023/05/29 06:20:06;;;;;;;8.25;6.00;;;;;;;20.34;50.47;96534.06;5043051;28;20316;-59
2023/05/29 06:22:33;;;;;;;6.55;5.50;;;;;;;20.48;49.81;96533.03;5043413;28;20195;-57
2023/05/29 06:24:59;;;;;;;8.70;5.93;;;;;;;20.62;50.50;96531.16;5042679;28;20531;-60
2023/05/29 06:27:26;;;;;;;7.97;5.63;;;;;;;20.80;49.33;96523.28;5045188;28;20211;-59
2023/05/29 06:29:52;;;;;;;6.50;5.68;;;;;;;20.96;48.97;96530.06;5043824;28;20204;-60
2023/05/29 06:32:20;;;;;;;8.52;5.97;;;;;;;21.13;48.48;96528.63;5045689;28;20214;-59
2023/05/29 06:34:46;;;;;;;8.73;6.38;;;;;;;21.33;50.31;96529.38;5041922;28;20212;-59
2023/05/29 06:37:14;;;;;;;7.13;5.47;;;;;;;21.63;49.11;96530.50;5042207;28;20219;-59
2023/05/29 06:39:42;;;;;;;7.47;5.72;;;;;;;21.60;48.29;96528.22;5042545;28;20251;-58
2023/05/29 06:42:08;;;;;;;7.47;5.88;;;;;;;21.62;48.14;96536.91;5042262;28;20207;-58
2023/05/29 06:44:37;;;;;;;7.00;5.55;;;;;;;21.73;49.87;96536.22;5042757;28;20204;-59
2023/05/29 06:47:06;;;;;;;8.70;5.82;;;;;;;21.93;48.24;96538.81;5041930;28;20203;-60
2023/05/29 06:49:32;;;;;;;7.90;5.90;;;;;;;21.83;45.32;96541.13;5043319;28;20203;-58
2023/05/29 06:51:59;;;;;;;8.23;5.85;;;;;;;22.01;46.48;96540.44;5049284;28;20229;-60
2023/05/29 06:54:27;;;;;;;9.27;6.28;;;;;;;22.36;45.84;96547.03;5049494;28;20238;-59
2023/05/29 06:56:53;;;;;;;9.35;6.18;;;;;;;22.36;45.04;96535.41;5044326;28;20227;-59
2023/05/29 06:59:21;;;;;;;6.70;5.93;;;;;;;22.49;47.49;96529.94;5042978;28;20697;-59
2023/05/29 07:01:47;;;;;;;10.20;6.43;;;;;;;22.10;45.58;96528.38;5042234;28;20223;-58
2023/05/29 07:04:14;;;;;;;9.23;6.20;;;;;;;22.30;45.08;96532.56;5042094;28;21511;-60
2023/05/29 07:06:40;;;;;;;7.50;5.55;;;;;;;22.68;47.39;96531.66;5042458;28;20211;-59
2023/05/29 07:09:07;;;;;;;6.63;5.95;;;;;;;22.84;48.40;96532.97;5042447;28;20226;-59
2023/05/29 07:11:35;;;;;;;6.72;5.47;;;;;;;23.06;46.00;96536.91;5045046;28;20207;-59
2023/05/29 07:14:01;;;;;;;6.30;5.57;;;;;;;23.09;46.05;96547.25;5048197;28;20260;-60
2023/05/29 07:16:27;;;;;;;8.15;5.47;;;;;;;23.24;43.63;96540.41;5045607;28;20203;-59
2023/05/29 07:18:54;;;;;;;6.72;5.70;;;;;;;23.47;45.38;96544.34;5041871;28;20210;-60
2023/05/29 07:21:21;;;;;;;9.15;5.57;;;;;;;23.62;45.23;96537.53;5041601;28;20242;-59
2023/05/29 07:23:47;;;;;;;6.28;5.13;;;;;;;23.71;43.70;96548.81;5042121;28;20216;-59
2023/05/29 07:26:14;;;;;;;5.88;5.30;;;;;;;23.27;43.77;96544.56;5042222;28;20207;-60
2023/05/29 07:28:41;;;;;;;5.75;5.22;;;;;;;23.29;44.30;96542.44;5042088;28;20218;-59
2023/05/29 07:31:08;;;;;;;7.00;5.85;;;;;;;23.45;44.15;96543.75;5042222;28;20200;-59
2023/05/29 07:33:35;;;;;;;8.15;5.90;;;;;;;23.36;43.88;96545.91;5041367;28;20559;-59
2023/05/29 07:36:01;;;;;;;8.18;5.93;;;;;;;23.15;44.63;96538.25;5043099;28;20228;-59
2023/05/29 07:38:28;;;;;;;8.10;5.55;;;;;;;23.59;45.40;96539.84;5042175;28;20210;-60
2023/05/29 07:40:54;;;;;;;6.97;5.32;;;;;;;23.84;44.63;96540.56;5041824;28;20239;-59
2023/05/29 07:43:22;;;;;;;11.30;6.00;;;;;;;23.97;43.75;96539.53;5042141;28;20210;-60
2023/05/29 07:45:49;;;;;;;6.32;5.60;;;;;;;24.01;42.67;96538.88;5041404;28;20210;-59
2023/05/29 07:48:16;;;;;;;8.10;5.47;;;;;;;24.08;42.13;96536.88;5042107;28;20211;-60
2023/05/29 07:50:42;;;;;;;7.85;5.53;;;;;;;24.12;42.66;96538.09;5042042;28;20628;-59
2023/05/29 07:53:09;;;;;;;7.13;5.38;;;;;;;24.20;44.02;96529.66;5041148;28;20303;-61
2023/05/29 07:55:35;;;;;;;6.88;5.55;;;;;;;24.29;40.74;96538.25;5042655;28;20215;-60
2023/05/29 07:58:02;;;;;;;6.05;5.30;;;;;;;24.20;42.37;96539.63;5043030;28;20290;-59
2023/05/29 08:00:29;;;;;;;6.40;5.65;;;;;;;24.38;41.97;96536.03;5041934;28;20624;-59
2023/05/29 08:02:57;;;;;;;12.23;5.55;;;;;;;24.35;42.23;96545.44;5041981;28;20555;-59
2023/05/29 08:05:24;;;;;;;6.60;5.90;;;;;;;24.21;40.34;96535.88;5042146;28;20307;-60
2023/05/29 08:07:50;;;;;;;7.15;5.30;;;;;;;24.39;44.23;96533.13;5041685;28;20204;-59
2023/05/29 08:10:16;;;;;;;8.45;4.93;;;;;;;24.78;43.23;96537.88;5041094;28;20196;-59
2023/05/29 08:12:43;;;;;;;6.32;5.40;;;;;;;24.70;42.90;96543.63;5041240;28;20207;-61
2023/05/29 08:15:10;;;;;;;8.95;5.43;;;;;;;25.00;42.88;96540.00;5040958;28;20208;-59
2023/05/29 08:17:36;;;;;;;9.35;5.28;;;;;;;25.04;41.80;96535.78;5041640;28;20210;-59
2023/05/29 08:20:07;;;;;;;6.18;5.30;;;;;;;25.23;43.50;96542.69;5041018;28;20239;-60
2023/05/29 08:22:34;;;;;;;6.15;5.50;;;;;;;24.90;39.88;96534.38;5042859;28;20219;-59
2023/05/29 08:25:01;;;;;;;7.88;5.55;;;;;;;24.99;40.95;96543.78;5043333;28;20643;-59
2023/05/29 08:27:27;;;;;;;7.25;5.32;;;;;;;24.94;42.97;96538.25;5040780;28;20279;-59
2023/05/29 08:29:54;;;;;;;7.88;5.35;;;;;;;25.09;42.32;96538.59;5041569;28;20210;-59
2023/05/29 08:32:20;;;;;;;7.65;5.47;;;;;;;25.15;43.27;96548.50;5041685;28;20304;-59
2023/05/29 08:34:48;;;;;;;6.80;5.18;;;;;;;25.22;40.47;96541.06;5041363;28;20227;-59
2023/05/29 08:37:16;;;;;;;6.40;5.15;;;;;;;25.18;40.07;96542.59;5041753;28;20306;-58
2023/05/29 08:39:42;;;;;;;8.10;5.25;;;;;;;25.30;42.78;96539.84;5042111;28;20285;-59
2023/05/29 08:42:13;;;;;;;5.25;4.85;;;;;;;25.55;43.47;96537.72;5041861;28;20223;-59
2023/05/29 08:44:40;;;;;;;5.80;5.30;;;;;;;25.23;40.39;96542.69;5042542;28;20211;-60
2023/05/29 08:47:10;;;;;;;6.30;5.40;;;;;;;25.55;41.71;96538.53;5041093;28;20290;-61
2023/05/29 08:49:42;;;;;;;5.70;5.20;;;;;;;25.87;42.42;96546.22;5041956;28;20200;-59
2023/05/29 08:52:11;;;;;;;6.47;5.25;;;;;;;25.81;40.45;96544.47;5042015;28;20297;-60
2023/05/29 08:54:38;;;;;;;7.45;5.60;;;;;;;25.84;41.67;96546.69;5041855;28;20290;-59
2023/05/29 08:57:06;;;;;;;7.50;5.40;;;;;;;25.76;40.81;96542.47;5041852;28;20223;-59
2023/05/29 08:59:33;;;;;;;8.00;4.97;;;;;;;26.10;43.17;96546.13;5045545;28;20200;-59
2023/05/29 09:01:59;;;;;;;6.65;4.90;;;;;;;25.99;41.76;96544.28;5045116;28;20308;-59
2023/05/29 09:04:26;;;;;;;5.88;4.97;;;;;;;26.20;41.46;96547.16;5045491;28;20199;-59
2023/05/29 09:06:55;;;;;;;5.07;4.47;;;;;;;26.26;41.13;96550.78;5046351;28;20204;-60
2023/05/29 09:09:23;;;;;;;4.95;4.47;;;;;;;26.22;38.56;96555.03;5045812;28;21492;-59
2023/05/29 09:11:51;;;;;;;7.85;4.85;;;;;;;26.13;39.03;96540.22;5045782;28;20238;-59
2023/05/29 09:14:34;;;;;;;8.30;7.03;;;;;;;26.33;40.17;96535.19;5046405;28;20202;-59
2023/05/29 09:17:00;;;;;;;5.05;4.55;;;;;;;25.50;37.93;96551.13;5044720;28;20217;-58
2023/05/29 09:19:27;;;;;;;5.18;4.70;;;;;;;25.89;37.54;96554.94;5046457;28;20207;-59
2023/05/29 09:22:03;;;;;;;5.93;5.07;;;;;;;26.13;41.07;96551.06;5045407;28;20232;-59
2023/05/29 09:24:30;;;;;;;5.03;4.50;;;;;;;25.96;38.47;96551.03;5046249;28;20192;-59
2023/05/29 09:26:59;;;;;;;7.63;4.85;;;;;;;26.09;42.61;96544.47;5045503;28;20208;-58
2023/05/29 09:29:26;;;;;;;5.57;4.55;;;;;;;26.06;41.91;96542.25;5045818;28;20489;-58
2023/05/29 09:31:52;;;;;;;7.45;5.03;;;;;;;26.09;38.59;96544.47;5045233;28;20211;-57
2023/05/29 09:34:20;;;;;;;6.10;5.07;;;;;;;25.86;40.43;96539.16;5044696;28;20234;-58
2023/05/29 09:36:47;;;;;;;5.38;4.72;;;;;;;26.34;39.25;96547.69;5045478;28;20203;-58
2023/05/29 09:39:14;;;;;;;5.32;4.53;;;;;;;26.26;38.89;96544.53;5046294;28;20203;-58
2023/05/29 09:41:42;;;;;;;5.45;4.95;;;;;;;26.08;38.46;96543.66;5046036;28;20234;-59
2023/05/29 09:44:13;;;;;;;5.57;4.70;;;;;;;25.95;38.53;96553.97;5045572;28;20203;-58
2023/05/29 09:46:39;;;;;;;5.32;4.72;;;;;;;26.12;38.54;96535.84;5045264;28;20200;-59
2023/05/29 09:49:09;;;;;;;6.53;4.95;;;;;;;26.20;38.85;96552.59;5045934;28;20199;-59
2023/05/29 09:51:36;;;;;;;5.75;5.20;;;;;;;26.13;39.99;96534.81;5045173;28;20212;-58
2023/05/29 09:54:15;;;;;;;6.20;4.95;;;;;;;26.51;41.02;96537.66;5044562;28;20631;-56
2023/05/29 09:56:43;;;;;;;6.60;4.70;;;;;;;26.49;39.33;96534.41;5046616;28;20235;-55
2023/05/29 09:59:15;;;;;;;6.22;4.82;;;;;;;26.94;41.01;96528.06;5048079;28;20235;-55
2023/05/29 10:01:43;;;;;;;5.18;4.68;;;;;;;26.68;38.40;96526.81;5055531;28;20225;-55
2023/05/29 10:04:11;;;;;;;5.25;4.47;;;;;;;26.78;39.61;96535.16;5060012;28;20204;-56
2023/05/29 10:06:39;;;;;;;5.15;4.68;;;;;;;26.83;39.56;96529.81;5063090;28;20208;-55
2023/05/29 10:09:07;;;;;;;5.05;4.50;;;;;;;26.37;37.35;96519.25;5062692;28;20199;-56
2023/05/29 10:11:35;;;;;;;4.93;4.38;;;;;;;26.66;37.80;96524.38;5050665;28;20850;-56
2023/05/29 10:14:02;;;;;;;5.40;4.68;;;;;;;26.71;37.31;96529.84;5045422;28;20215;-55
2023/05/29 10:16:35;;;;;;;5.43;4.93;;;;;;;26.71;35.66;96520.91;5044878;28;20261;-56
2023/05/29 10:19:06;;;;;;;6.00;4.18;;;;;;;27.11;39.30;96510.69;5046469;28;20658;-56
2023/05/29 10:21:34;;;;;;;4.57;4.18;;;;;;;26.81;36.57;96520.25;5046920;28;20227;-57
2023/05/29 10:24:01;;;;;;;4.93;4.40;;;;;;;26.97;38.16;96512.09;5044819;28;20210;-57
2023/05/29 10:26:30;;;;;;;4.80;4.40;;;;;;;27.13;38.10;96522.13;5046262;28;20207;-57
2023/05/29 10:29:04;;;;;;;4.68;4.28;;;;;;;27.34;37.07;96509.66;5045840;28;20218;-57
2023/05/29 10:31:39;;;;;;;5.13;4.25;;;;;;;27.38;36.04;96502.66;5044995;28;20203;-55
2023/05/29 10:34:15;;;;;;;7.57;4.80;;;;;;;27.73;37.85;96496.84;5046184;28;20205;-58
2023/05/29 10:36:45;;;;;;;6.05;4.60;;;;;;;27.88;38.29;96509.78;5046414;28;20225;-57
2023/05/29 10:39:13;;;;;;;5.28;4.55;;;;;;;27.63;37.21;96502.16;5050439;28;20195;-57
2023/05/29 10:41:40;;;;;;;6.55;4.90;;;;;;;27.36;36.22;96501.22;5055184;28;20706;-57
2023/05/29 10:44:42;;;;;;;6.68;4.55;;;;;;;26.91;36.77;96499.53;5058831;28;20610;-57
2023/05/29 10:47:12;;;;;;;7.57;4.50;;;;;;;26.61;35.84;96502.56;5060264;28;20239;-57
2023/05/29 10:49:38;;;;;;;4.95;4.55;;;;;;;26.98;36.45;96499.38;5054862;28;20206;-57
2023/05/29 10:52:06;;;;;;;5.38;4.60;;;;;;;26.28;36.34;96502.56;5054801;28;20569;-58
2023/05/29 10:54:42;;;;;;;5.03;4.25;;;;;;;27.02;39.34;96484.22;5052975;28;20203;-57
2023/05/29 10:57:09;;;;;;;9.57;4.85;;;;;;;26.88;35.71;96496.50;5050039;28;20219;-59
2023/05/29 10:59:36;;;;;;;5.28;4.35;;;;;;;26.99;36.00;96495.59;5056116;28;20203;-58
2023/05/29 11:02:05;;;;;;;4.30;3.90;;;;;;;27.31;36.19;96485.72;5052945;28;20232;-56
2023/05/29 11:04:33;;;;;;;4.57;4.18;;;;;;;27.69;38.12;96484.84;5062029;28;20234;-57
2023/05/29 11:07:03;;;;;;;4.78;4.35;;;;;;;26.95;34.49;96486.28;5065271;28;20262;-59
2023/05/29 11:09:32;;;;;;;4.97;4.57;;;;;;;27.35;37.16;96489.53;5063271;28;20229;-59
2023/05/29 11:12:25;;;;;;;5.13;4.60;;;;;;;27.27;34.87;96481.84;5060932;28;20196;-56
2023/05/29 11:14:55;;;;;;;6.10;4.43;;;;;;;27.31;38.46;96485.72;5055541;28;20205;-56
2023/05/29 11:17:44;;;;;;;4.70;4.30;;;;;;;27.32;34.44;96489.22;5058160;28;20210;-57
2023/05/29 11:20:18;;;;;;;4.57;4.15;;;;;;;27.13;33.17;96492.28;5061242;28;20227;-58
2023/05/29 11:23:01;;;;;;;5.00;4.57;;;;;;;26.89;33.59;96487.31;5056676;28;20245;-56
2023/05/29 11:25:28;;;;;;;6.05;4.50;;;;;;;27.06;34.71;96480.78;5049777;28;20200;-57
2023/05/29 11:27:57;;;;;;;4.90;4.50;;;;;;;27.00;34.93;96480.91;5048968;28;20515;-57
2023/05/29 11:30:24;;;;;;;5.03;4.53;;;;;;;27.19;35.48;96476.84;5046797;28;20199;-56
2023/05/29 11:32:52;;;;;;;5.53;4.32;;;;;;;27.35;33.65;96470.53;5045131;28;20203;-56
2023/05/29 11:35:22;;;;;;;5.47;4.32;;;;;;;27.43;35.28;96475.53;5045576;28;20253;-57
2023/05/29 11:37:50;;;;;;;4.90;4.40;;;;;;;27.50;35.93;96475.38;5044369;28;20285;-57